createdAt,value
2018-07-22T00:01:20.655Z,86.74
2018-07-22T00:03:49.878Z,87.66
2018-07-22T00:06:19.279Z,87.15
2018-07-22T00:08:48.472Z,87.02
2018-07-22T00:11:17.676Z,86.86
2018-07-22T00:13:47.159Z,87.35
2018-07-22T00:16:16.327Z,87.26
2018-07-22T00:18:46.252Z,86.85
2018-07-22T00:21:15.450Z,86.75
2018-07-22T00:23:45.342Z,86.80
2018-07-22T00:26:14.536Z,87.30
2018-07-22T00:28:43.979Z,87.08
2018-07-22T00:31:13.150Z,87.15
2018-07-22T00:33:42.356Z,87.49
2018-07-22T00:36:11.536Z,88.03
2018-07-22T00:38:40.883Z,88.13
2018-07-22T00:41:10.099Z,86.59
2018-07-22T00:43:39.291Z,87.07
2018-07-22T00:46:08.463Z,87.23
2018-07-22T00:48:37.687Z,86.38
2018-07-22T00:51:07.183Z,86.64
2018-07-22T00:53:36.398Z,87.63
2018-07-22T00:56:05.793Z,88.03
2018-07-22T00:58:34.970Z,87.88
2018-07-22T01:01:04.131Z,87.21
2018-07-22T01:03:33.309Z,87.37
2018-07-22T01:06:02.487Z,86.04
2018-07-22T01:08:31.749Z,86.76
2018-07-22T01:11:00.912Z,87.55
2018-07-22T01:13:30.111Z,86.62
2018-07-22T01:15:59.276Z,86.35
2018-07-22T01:18:28.475Z,85.87
2018-07-22T01:20:57.638Z,86.42
2018-07-22T01:23:26.874Z,86.69
2018-07-22T01:25:56.192Z,86.85
2018-07-22T01:28:25.482Z,86.07
2018-07-22T01:30:54.975Z,86.39
2018-07-22T01:33:24.146Z,86.49
2018-07-22T01:35:53.418Z,87.29
2018-07-22T01:38:22.999Z,86.95
2018-07-22T01:40:52.174Z,86.89
2018-07-22T01:43:21.500Z,86.75
2018-07-22T01:45:51.307Z,87.22
2018-07-22T01:48:20.560Z,87.28
2018-07-22T01:50:49.744Z,87.31
2018-07-22T01:53:18.931Z,86.70
2018-07-22T01:55:48.097Z,87.05
2018-07-22T01:58:17.388Z,86.94
2018-07-22T02:00:46.573Z,86.73
2018-07-22T02:03:15.771Z,86.34
2018-07-22T02:05:44.964Z,86.59
2018-07-22T02:08:14.447Z,86.43
2018-07-22T02:10:44.067Z,86.43
2018-07-22T02:13:13.667Z,86.69
2018-07-22T02:15:42.831Z,87.16
2018-07-22T02:18:12.052Z,86.31
2018-07-22T02:20:41.234Z,86.17
2018-07-22T02:23:10.427Z,86.33
2018-07-22T02:25:39.606Z,86.89
2018-07-22T02:28:09.496Z,86.87
2018-07-22T02:30:38.704Z,87.15
2018-07-22T02:33:07.891Z,86.90
2018-07-22T02:35:37.303Z,87.02
2018-07-22T02:38:06.507Z,86.63
2018-07-22T02:40:35.699Z,86.74
2018-07-22T02:43:04.930Z,86.79
2018-07-22T02:45:34.131Z,86.68
2018-07-22T02:48:03.304Z,86.43
2018-07-22T02:50:32.490Z,86.51
2018-07-22T02:53:01.911Z,86.67
2018-07-22T02:55:31.138Z,86.74
2018-07-22T02:58:00.454Z,86.68
2018-07-22T03:00:29.631Z,87.02
2018-07-22T03:02:59.009Z,86.48
2018-07-22T03:05:28.407Z,86.93
2018-07-22T03:07:57.719Z,87.02
2018-07-22T03:10:26.913Z,86.71
2018-07-22T03:12:56.104Z,86.59
2018-07-22T03:15:25.407Z,86.53
2018-07-22T03:17:55.104Z,86.38
2018-07-22T03:20:24.272Z,86.26
2018-07-22T03:22:53.972Z,86.20
2018-07-22T03:25:23.403Z,86.50
2018-07-22T03:27:52.977Z,86.95
2018-07-22T03:30:22.539Z,86.82
2018-07-22T03:32:51.963Z,86.80
2018-07-22T03:35:21.153Z,86.88
2018-07-22T03:37:50.310Z,87.00
2018-07-22T03:40:19.519Z,86.99
2018-07-22T03:42:48.706Z,86.83
2018-07-22T03:45:17.910Z,86.78
2018-07-22T03:47:47.067Z,86.98
2018-07-22T03:50:16.234Z,86.78
2018-07-22T03:52:45.446Z,86.87
2018-07-22T03:55:14.640Z,86.82
2018-07-22T03:57:43.807Z,86.89
2018-07-22T04:00:12.991Z,87.00
2018-07-22T04:02:42.157Z,86.63
2018-07-22T04:05:11.382Z,86.66
2018-07-22T04:07:40.547Z,87.05
2018-07-22T04:10:09.730Z,87.30
2018-07-22T04:12:38.918Z,87.66
2018-07-22T04:15:08.220Z,87.81
2018-07-22T04:17:37.531Z,88.57
2018-07-22T04:20:06.968Z,88.56
2018-07-22T04:22:36.265Z,88.69
2018-07-22T04:25:05.479Z,87.62
2018-07-22T04:27:34.654Z,87.14
2018-07-22T04:30:03.926Z,87.30
2018-07-22T04:32:33.139Z,86.71
2018-07-22T04:35:02.487Z,86.41
2018-07-22T04:37:31.859Z,86.42
2018-07-22T04:40:01.023Z,86.34
2018-07-22T04:42:30.320Z,86.88
2018-07-22T04:44:59.515Z,86.71
2018-07-22T04:47:29.414Z,87.08
2018-07-22T04:49:58.612Z,86.80
2018-07-22T04:52:27.779Z,87.43
2018-07-22T04:54:57.987Z,87.20
2018-07-22T04:57:27.147Z,87.07
2018-07-22T04:59:56.333Z,87.13
2018-07-22T05:02:25.586Z,87.31
2018-07-22T05:04:54.786Z,87.00
2018-07-22T05:07:23.975Z,86.57
2018-07-22T05:09:53.177Z,86.21
2018-07-22T05:12:22.367Z,86.63
2018-07-22T05:14:51.546Z,86.18
2018-07-22T05:17:20.730Z,85.96
2018-07-22T05:19:49.922Z,85.59
2018-07-22T05:22:19.103Z,84.14
2018-07-22T05:24:48.286Z,84.98
2018-07-22T05:27:17.475Z,84.14
2018-07-22T05:29:46.678Z,84.03
2018-07-22T05:32:15.994Z,84.03
2018-07-22T05:34:45.459Z,82.62
2018-07-22T05:37:14.815Z,83.50
2018-07-22T05:39:44.062Z,82.00
2018-07-22T05:42:13.595Z,81.18
2018-07-22T05:44:42.687Z,80.72
2018-07-22T05:47:11.856Z,80.19
2018-07-22T05:49:41.047Z,79.30
2018-07-22T05:52:10.259Z,78.79
2018-07-22T05:54:40.800Z,79.64
2018-07-22T05:57:11.019Z,79.43
2018-07-22T05:59:40.239Z,78.64
2018-07-22T06:02:09.535Z,78.86
2018-07-22T06:04:38.867Z,78.58
2018-07-22T06:07:08.071Z,79.00
2018-07-22T06:09:37.271Z,79.77
2018-07-22T06:12:06.597Z,78.36
2018-07-22T06:14:35.715Z,78.75
2018-07-22T06:17:05.196Z,78.27
2018-07-22T06:19:34.424Z,77.28
2018-07-22T06:22:03.623Z,77.89
2018-07-22T06:24:32.811Z,76.84
2018-07-22T06:27:01.987Z,75.31
2018-07-22T06:29:31.394Z,75.79
2018-07-22T06:32:00.587Z,75.29
2018-07-22T06:34:29.811Z,73.73
2018-07-22T06:36:59.005Z,73.17
2018-07-22T06:39:30.229Z,72.10
2018-07-22T06:41:59.459Z,71.09
2018-07-22T06:44:28.759Z,69.58
2018-07-22T06:46:57.927Z,68.64
2018-07-22T06:49:27.509Z,69.39
2018-07-22T06:51:57.812Z,66.61
2018-07-22T06:54:27.930Z,68.21
2018-07-22T06:56:57.173Z,68.09
2018-07-22T06:59:26.347Z,67.82
2018-07-22T07:01:55.625Z,67.59
2018-07-22T07:04:24.860Z,65.90
2018-07-22T07:06:54.174Z,67.29
2018-07-22T07:09:23.654Z,67.53
2018-07-22T07:11:52.846Z,68.91
2018-07-22T07:14:22.052Z,69.39
2018-07-22T07:16:51.595Z,69.56
2018-07-22T07:19:20.766Z,69.46
2018-07-22T07:21:50.135Z,70.12
2018-07-22T07:24:19.334Z,70.76
2018-07-22T07:26:48.593Z,72.18
2018-07-22T07:29:17.715Z,71.55
2018-07-22T07:31:47.136Z,72.31
2018-07-22T07:34:16.383Z,72.66
2018-07-22T07:36:45.559Z,73.26
2018-07-22T07:39:14.735Z,74.00
2018-07-22T07:41:44.016Z,74.69
2018-07-22T07:44:13.612Z,74.88
2018-07-22T07:46:43.139Z,75.57
2018-07-22T07:49:12.311Z,75.34
2018-07-22T07:51:41.487Z,76.79
2018-07-22T07:54:10.684Z,78.59
2018-07-22T07:56:39.895Z,78.92
2018-07-22T07:59:09.075Z,80.51
2018-07-22T08:01:38.306Z,80.57
2018-07-22T08:04:08.156Z,81.20
2018-07-22T08:06:37.358Z,81.10
2018-07-22T08:09:07.727Z,81.34
2018-07-22T08:11:37.258Z,81.71
2018-07-22T08:14:06.434Z,82.75
2018-07-22T08:16:36.203Z,81.62
2018-07-22T08:19:05.422Z,81.71
2018-07-22T08:21:34.639Z,81.13
2018-07-22T08:24:03.801Z,80.98
2018-07-22T08:26:32.972Z,79.47
2018-07-22T08:29:20.556Z,79.92
2018-07-22T08:31:51.335Z,79.32
2018-07-22T08:34:20.731Z,79.07
2018-07-22T08:36:50.147Z,79.07
2018-07-22T08:39:20.667Z,78.27
2018-07-22T08:41:50.635Z,78.16
2018-07-22T08:44:19.799Z,78.26
2018-07-22T08:46:48.999Z,76.94
2018-07-22T08:49:18.548Z,77.05
2018-07-22T08:51:48.055Z,77.34
2018-07-22T08:54:17.267Z,76.85
2018-07-22T08:56:46.459Z,77.21
2018-07-22T08:59:15.685Z,75.95
2018-07-22T09:01:44.894Z,75.39
2018-07-22T09:04:14.066Z,75.45
2018-07-22T09:06:47.254Z,75.13
2018-07-22T09:09:16.483Z,75.27
2018-07-22T09:11:48.590Z,73.13
2018-07-22T09:14:17.965Z,73.71
2018-07-22T09:16:49.226Z,72.55
2018-07-22T09:19:19.487Z,73.20
2018-07-22T09:21:51.752Z,72.28
2018-07-22T09:24:22.135Z,71.84
2018-07-22T09:26:52.698Z,71.86
2018-07-22T09:29:23.681Z,71.43
2018-07-22T09:31:54.853Z,70.35
2018-07-22T09:34:25.291Z,69.32
2018-07-22T09:36:55.083Z,70.07
2018-07-22T09:39:24.291Z,70.13
2018-07-22T09:41:54.749Z,67.82
2018-07-22T09:44:23.881Z,69.02
2018-07-22T09:46:53.219Z,67.09
2018-07-22T09:49:22.605Z,66.82
2018-07-22T09:51:51.804Z,65.50
2018-07-22T09:54:21.566Z,64.52
2018-07-22T09:56:50.775Z,62.60
2018-07-22T09:59:20.344Z,62.69
2018-07-22T10:01:49.771Z,61.32
2018-07-22T10:04:19.150Z,61.20
2018-07-22T10:06:48.325Z,60.03
2018-07-22T10:09:17.560Z,59.52
2018-07-22T10:11:46.747Z,60.45
2018-07-22T10:14:16.325Z,58.95
2018-07-22T10:16:45.506Z,58.40
2018-07-22T10:19:14.706Z,57.10
2018-07-22T10:21:44.227Z,56.83
2018-07-22T10:24:13.415Z,53.63
2018-07-22T10:26:42.623Z,51.54
2018-07-22T10:29:11.790Z,49.08
2018-07-22T10:31:41.003Z,45.49
2018-07-22T10:34:10.207Z,44.33
2018-07-22T10:36:39.447Z,43.45
2018-07-22T10:39:10.451Z,43.63
2018-07-22T10:41:39.763Z,41.49
2018-07-22T10:44:09.050Z,41.78
2018-07-22T10:46:38.363Z,38.50
2018-07-22T10:49:07.787Z,36.68
2018-07-22T10:51:40.089Z,37.02
2018-07-22T10:54:09.364Z,36.83
2018-07-22T10:56:38.539Z,34.86
2018-07-22T10:59:07.707Z,36.64
2018-07-22T11:01:37.040Z,32.65
2018-07-22T11:04:06.414Z,32.00
2018-07-22T11:06:36.090Z,31.31
2018-07-22T11:09:07.674Z,29.57
2018-07-22T11:11:36.851Z,29.62
2018-07-22T11:14:06.116Z,30.59
2018-07-22T11:16:35.321Z,27.13
2018-07-22T11:19:04.552Z,32.36
2018-07-22T11:21:33.808Z,32.59
2018-07-22T11:24:02.978Z,33.82
2018-07-22T11:26:32.423Z,35.55
2018-07-22T11:29:01.617Z,35.66
2018-07-22T11:31:30.923Z,33.55
2018-07-22T11:34:01.304Z,34.02
2018-07-22T11:36:30.478Z,31.14
2018-07-22T11:38:59.655Z,31.24
2018-07-22T11:41:28.827Z,32.34
2018-07-22T11:43:58.087Z,34.63
2018-07-22T11:46:27.223Z,34.45
2018-07-22T11:48:57.234Z,31.26
2018-07-22T11:51:26.414Z,30.98
2018-07-22T11:53:55.610Z,30.30
2018-07-22T11:56:24.965Z,34.22
2018-07-22T11:58:54.503Z,31.05
2018-07-22T12:01:24.020Z,28.63
2018-07-22T12:03:53.619Z,29.30
2018-07-22T12:06:22.815Z,28.37
2018-07-22T12:08:52.020Z,27.09
2018-07-22T12:11:21.319Z,27.10
2018-07-22T12:13:50.512Z,27.55
2018-07-22T12:16:20.039Z,29.16
2018-07-22T12:18:49.262Z,28.12
2018-07-22T12:21:18.486Z,26.08
2018-07-22T12:23:47.948Z,25.32
2018-07-22T12:26:17.119Z,25.34
2018-07-22T12:28:46.488Z,23.72
2018-07-22T12:31:15.771Z,24.12
2018-07-22T12:33:44.963Z,25.61
2018-07-22T12:36:14.447Z,21.58
2018-07-22T12:38:43.852Z,24.13
2018-07-22T12:41:13.010Z,23.72
2018-07-22T12:43:42.275Z,23.51
2018-07-22T12:46:11.476Z,24.75
2018-07-22T12:48:40.647Z,24.71
2018-07-22T12:51:09.872Z,25.41
2018-07-22T12:53:39.083Z,24.93
2018-07-22T12:56:08.210Z,24.01
2018-07-22T12:58:37.643Z,23.58
2018-07-22T13:01:06.995Z,23.10
2018-07-22T13:03:36.487Z,23.69
2018-07-22T13:06:05.671Z,24.28
2018-07-22T13:08:34.892Z,26.13
2018-07-22T13:11:04.034Z,25.15
2018-07-22T13:13:33.227Z,23.68
2018-07-22T13:16:02.462Z,22.50
2018-07-22T13:18:31.999Z,23.10
2018-07-22T13:21:01.152Z,23.19
2018-07-22T13:23:30.335Z,26.32
2018-07-22T13:25:59.660Z,25.75
2018-07-22T13:28:29.159Z,24.71
2018-07-22T13:30:58.350Z,23.65
2018-07-22T13:33:27.554Z,23.57
2018-07-22T13:35:57.102Z,24.86
2018-07-22T13:38:26.535Z,25.38
2018-07-22T13:40:56.474Z,25.73
2018-07-22T13:43:25.640Z,26.17
2018-07-22T13:45:54.818Z,25.58
2018-07-22T13:48:24.023Z,25.91
2018-07-22T13:50:53.195Z,25.09
2018-07-22T13:53:22.403Z,23.23
2018-07-22T13:55:51.579Z,23.22
2018-07-22T13:58:20.782Z,23.62
2018-07-22T14:00:49.986Z,23.69
2018-07-22T14:03:20.462Z,23.22
2018-07-22T14:05:49.639Z,21.71
2018-07-22T14:08:18.886Z,23.11
2018-07-22T14:10:48.051Z,25.49
2018-07-22T14:13:17.533Z,24.99
2018-07-22T14:15:46.714Z,24.03
2018-07-22T14:18:16.045Z,25.47
2018-07-22T14:20:45.192Z,23.96
2018-07-22T14:23:14.373Z,25.26
2018-07-22T14:25:44.049Z,25.81
2018-07-22T14:28:13.276Z,24.55
2018-07-22T14:30:42.375Z,25.22
2018-07-22T14:33:11.559Z,25.43
2018-07-22T14:35:40.751Z,25.74
2018-07-22T14:38:09.942Z,28.73
2018-07-22T14:40:39.282Z,31.52
2018-07-22T14:43:08.742Z,31.74
2018-07-22T14:45:37.903Z,32.23
2018-07-22T14:48:07.588Z,31.36
2018-07-22T14:50:36.730Z,31.64
2018-07-22T14:53:06.696Z,30.72
2018-07-22T14:55:35.856Z,30.09
2018-07-22T14:58:05.099Z,29.00
2018-07-22T15:00:34.271Z,27.11
2018-07-22T15:03:03.765Z,28.64
2018-07-22T15:05:33.043Z,30.18
2018-07-22T15:08:02.167Z,31.86
2018-07-22T15:10:31.366Z,32.38
2018-07-22T15:13:00.556Z,31.51
2018-07-22T15:15:30.096Z,30.25
2018-07-22T15:17:59.283Z,29.97
2018-07-22T15:20:28.600Z,30.51
2018-07-22T15:22:58.114Z,31.14
2018-07-22T15:25:27.291Z,32.29
2018-07-22T15:27:56.451Z,31.70
2018-07-22T15:30:25.674Z,32.84
2018-07-22T15:32:54.824Z,33.41
2018-07-22T15:35:25.118Z,32.81
2018-07-22T15:37:54.293Z,32.69
2018-07-22T15:40:23.507Z,32.13
2018-07-22T15:42:52.696Z,32.75
2018-07-22T15:45:23.702Z,31.50
2018-07-22T15:47:53.422Z,31.04
2018-07-22T15:50:23.207Z,31.86
2018-07-22T15:52:52.898Z,31.38
2018-07-22T15:55:22.200Z,32.16
2018-07-22T15:57:51.254Z,31.89
2018-07-22T16:00:20.459Z,31.69
2018-07-22T16:02:49.658Z,31.57
2018-07-22T16:05:19.150Z,31.57
2018-07-22T16:07:49.043Z,31.91
2018-07-22T16:10:18.460Z,30.73
2018-07-22T16:12:47.649Z,31.07
2018-07-22T16:15:16.883Z,31.46
2018-07-22T16:17:46.161Z,32.16
2018-07-22T16:20:15.455Z,32.43
2018-07-22T16:22:46.333Z,32.68
2018-07-22T16:25:16.015Z,32.78
2018-07-22T16:27:45.486Z,33.15
2018-07-22T16:30:14.707Z,33.30
2018-07-22T16:32:44.811Z,33.47
2018-07-22T16:35:14.142Z,33.82
2018-07-22T16:37:43.348Z,33.66
2018-07-22T16:40:12.759Z,34.19
2018-07-22T16:42:41.939Z,34.78
2018-07-22T16:45:11.861Z,34.58
2018-07-22T16:47:41.044Z,35.28
2018-07-22T16:50:10.415Z,36.34
2018-07-22T16:52:39.583Z,35.92
2018-07-22T16:55:08.802Z,36.16
2018-07-22T16:57:37.951Z,34.80
2018-07-22T17:00:07.371Z,35.82
2018-07-22T17:02:36.586Z,34.49
2018-07-22T17:05:05.766Z,35.60
2018-07-22T17:07:35.071Z,35.66
2018-07-22T17:10:04.304Z,35.08
2018-07-22T17:12:33.455Z,34.93
2018-07-22T17:15:02.649Z,35.21
2018-07-22T17:17:31.827Z,36.25
2018-07-22T17:20:01.011Z,36.83
2018-07-22T17:22:30.211Z,37.58
2018-07-22T17:24:59.378Z,39.13
2018-07-22T17:27:28.794Z,38.12
2018-07-22T17:29:58.252Z,37.74
2018-07-22T17:32:27.431Z,38.50
2018-07-22T17:34:56.611Z,38.21
2018-07-22T17:37:26.641Z,41.28
2018-07-22T17:39:58.794Z,39.59
2018-07-22T17:42:29.499Z,39.85
2018-07-22T17:44:58.758Z,39.65
2018-07-22T17:47:28.896Z,40.74
2018-07-22T17:49:58.158Z,40.37
2018-07-22T17:52:27.895Z,40.53
2018-07-22T17:54:57.067Z,39.31
2018-07-22T17:57:26.252Z,41.87
2018-07-22T17:59:55.431Z,42.04
2018-07-22T18:02:24.598Z,41.11
2018-07-22T18:04:53.840Z,41.55
2018-07-22T18:07:23.079Z,42.18
2018-07-22T18:09:53.966Z,42.05
2018-07-22T18:12:23.824Z,41.39
2018-07-22T18:14:54.068Z,42.75
2018-07-22T18:17:24.082Z,42.23
2018-07-22T18:19:54.235Z,42.63
2018-07-22T18:22:24.240Z,43.37
2018-07-22T18:24:54.376Z,43.55
2018-07-22T18:27:24.715Z,43.37
2018-07-22T18:29:55.079Z,45.01
2018-07-22T18:32:25.827Z,46.15
2018-07-22T18:34:56.049Z,46.61
2018-07-22T18:37:25.221Z,48.59
2018-07-22T18:39:54.390Z,48.94
2018-07-22T18:42:23.696Z,50.02
2018-07-22T18:44:52.828Z,50.77
2018-07-22T18:47:22.011Z,51.04
2018-07-22T18:49:51.237Z,52.34
2018-07-22T18:52:20.363Z,52.56
2018-07-22T18:54:49.721Z,53.18
2018-07-22T18:57:18.915Z,54.54
2018-07-22T18:59:48.205Z,55.40
2018-07-22T19:02:17.906Z,55.32
2018-07-22T19:04:47.105Z,55.87
2018-07-22T19:07:16.279Z,56.61
2018-07-22T19:09:45.654Z,57.39
2018-07-22T19:12:14.959Z,58.67
2018-07-22T19:14:44.150Z,59.69
2018-07-22T19:17:13.699Z,59.96
2018-07-22T19:19:43.533Z,59.70
2018-07-22T19:22:12.619Z,59.78
2018-07-22T19:24:41.942Z,62.06
2018-07-22T19:27:11.131Z,61.84
2018-07-22T19:29:40.801Z,62.97
2018-07-22T19:32:10.309Z,62.29
2018-07-22T19:34:39.474Z,63.76
2018-07-22T19:37:08.672Z,63.95
2018-07-22T19:39:37.870Z,63.60
2018-07-22T19:42:07.620Z,64.50
2018-07-22T19:44:37.514Z,65.28
2018-07-22T19:47:06.695Z,64.06
2018-07-22T19:49:35.850Z,64.90
2018-07-22T19:52:05.041Z,64.97
2018-07-22T19:54:34.210Z,65.29
2018-07-22T19:57:03.403Z,64.82
2018-07-22T19:59:32.603Z,66.08
2018-07-22T20:02:01.806Z,67.28
2018-07-22T20:04:31.290Z,67.04
2018-07-22T20:07:00.759Z,67.43
2018-07-22T20:09:29.947Z,67.59
2018-07-22T20:11:59.562Z,67.09
2018-07-22T20:14:28.731Z,67.53
2018-07-22T20:16:59.360Z,67.66
2018-07-22T20:19:28.580Z,67.67
2018-07-22T20:22:01.933Z,67.36
2018-07-22T20:24:31.076Z,67.82
2018-07-22T20:27:00.259Z,67.92
2018-07-22T20:29:29.434Z,68.17
2018-07-22T20:31:58.603Z,67.89
2018-07-22T20:34:27.784Z,68.60
2018-07-22T20:36:57.206Z,68.66
2018-07-22T20:39:26.374Z,68.58
2018-07-22T20:41:55.559Z,68.87
2018-07-22T20:44:24.923Z,69.38
2018-07-22T20:46:56.856Z,69.26
2018-07-22T20:49:26.016Z,68.87
2018-07-22T20:51:55.443Z,69.27
2018-07-22T20:54:26.537Z,69.78
2018-07-22T20:56:55.790Z,69.17
2018-07-22T20:59:24.915Z,69.76
2018-07-22T21:01:54.099Z,70.46
2018-07-22T21:04:23.382Z,69.84
2018-07-22T21:06:52.571Z,69.45
2018-07-22T21:09:21.752Z,70.36
2018-07-22T21:14:03.113Z,70.36
2018-07-22T21:16:32.508Z,70.53
2018-07-22T21:19:01.679Z,70.96
2018-07-22T21:21:30.871Z,71.73
2018-07-22T21:24:00.016Z,70.81
2018-07-22T21:26:29.202Z,71.73
2018-07-22T21:28:58.363Z,72.00
2018-07-22T21:31:28.007Z,72.17
2018-07-22T21:33:57.172Z,71.73
2018-07-22T21:36:26.355Z,72.52
2018-07-22T21:38:55.979Z,71.42
2018-07-22T21:41:25.160Z,71.83
2018-07-22T21:43:54.307Z,72.32
2018-07-22T21:46:23.499Z,72.92
2018-07-22T21:48:52.662Z,72.34
2018-07-22T21:51:21.843Z,73.15
2018-07-22T21:53:51.035Z,72.24
2018-07-22T21:56:20.694Z,72.75
2018-07-22T21:58:49.831Z,73.25
2018-07-22T22:01:19.100Z,73.61
2018-07-22T22:03:48.263Z,73.29
2018-07-22T22:06:18.274Z,73.59
2018-07-22T22:08:47.440Z,74.11
2018-07-22T22:11:16.639Z,73.94
2018-07-22T22:13:45.803Z,74.63
2018-07-22T22:16:14.944Z,74.32
2018-07-22T22:18:44.465Z,74.09
2018-07-22T22:21:13.647Z,74.33
2018-07-22T22:23:42.871Z,74.26
2018-07-22T22:26:12.598Z,74.77
2018-07-22T22:28:41.893Z,74.95
2018-07-22T22:31:11.267Z,74.50
2018-07-22T22:33:40.491Z,73.91
2018-07-22T22:36:09.659Z,74.18
2018-07-22T22:38:38.839Z,74.15
2018-07-22T22:41:08.032Z,74.60
2018-07-22T22:43:37.223Z,75.66
2018-07-22T22:46:06.497Z,75.19
2018-07-22T22:48:35.671Z,75.35
2018-07-22T22:51:04.831Z,75.37
2018-07-22T22:53:34.024Z,76.12
2018-07-22T22:56:03.207Z,76.08
2018-07-22T22:58:43.923Z,75.83
2018-07-22T23:01:13.710Z,76.10
2018-07-22T23:03:42.870Z,75.95
2018-07-22T23:06:12.391Z,75.61
2018-07-22T23:08:41.579Z,76.25
2018-07-22T23:11:11.465Z,76.36
2018-07-22T23:13:40.618Z,76.10
2018-07-22T23:16:09.838Z,76.59
2018-07-22T23:18:39.027Z,76.94
2018-07-22T23:21:08.366Z,77.06
2018-07-22T23:23:37.564Z,76.97
2018-07-22T23:26:06.868Z,76.93
2018-07-22T23:28:36.074Z,77.12
2018-07-22T23:31:05.279Z,77.60
2018-07-22T23:33:34.483Z,78.10
2018-07-22T23:36:03.847Z,77.77
2018-07-22T23:38:33.350Z,78.14
2018-07-22T23:41:03.680Z,78.06
2018-07-22T23:43:32.851Z,77.87
2018-07-22T23:46:02.443Z,77.81
2018-07-22T23:48:31.855Z,78.51
2018-07-22T23:51:01.047Z,78.44
2018-07-22T23:53:30.626Z,78.40
2018-07-22T23:55:59.812Z,79.26
2018-07-22T23:58:30.224Z,78.96
